sensor_id;sensor_type;location;lat;lon;timestamp;pressure;altitude;pressure_sealevel;temperature;humidity
25350;BME280;13302;48.796;11.978;2023-12-22T00:02:00;95205.09;;;5.42;39.31
25350;BME280;13302;48.796;11.978;2023-12-22T00:04:47;95225.41;;;5.76;40.06
25350;BME280;13302;48.796;11.978;2023-12-22T00:07:35;95228.28;;;5.64;40.15
25350;BME280;13302;48.796;11.978;2023-12-22T00:10:22;95239.78;;;5.88;39.85
25350;BME280;13302;48.796;11.978;2023-12-22T00:13:09;95235.91;;;5.89;40.13
25350;BME280;13302;48.796;11.978;2023-12-22T00:15:56;95235.53;;;5.72;40.53
25350;BME280;13302;48.796;11.978;2023-12-22T00:18:43;95226.56;;;5.75;40.54
25350;BME280;13302;48.796;11.978;2023-12-22T00:21:30;95211.63;;;5.72;40.22
25350;BME280;13302;48.796;11.978;2023-12-22T00:24:18;95213.66;;;5.75;40.68
25350;BME280;13302;48.796;11.978;2023-12-22T00:27:05;95230.97;;;5.79;40.51
25350;BME280;13302;48.796;11.978;2023-12-22T00:29:53;95237.19;;;5.76;40.65
25350;BME280;13302;48.796;11.978;2023-12-22T00:32:40;95237.25;;;5.80;40.37
25350;BME280;13302;48.796;11.978;2023-12-22T00:35:27;95251.38;;;5.82;40.71
25350;BME280;13302;48.796;11.978;2023-12-22T00:38:14;95263.34;;;5.74;40.79
25350;BME280;13302;48.796;11.978;2023-12-22T00:41:01;95255.78;;;5.86;40.39
25350;BME280;13302;48.796;11.978;2023-12-22T00:43:48;95243.34;;;5.54;41.06
25350;BME280;13302;48.796;11.978;2023-12-22T00:46:35;95233.63;;;5.57;40.92
25350;BME280;13302;48.796;11.978;2023-12-22T00:49:22;95250.38;;;5.71;40.92
25350;BME280;13302;48.796;11.978;2023-12-22T00:52:09;95249.22;;;5.72;40.68
25350;BME280;13302;48.796;11.978;2023-12-22T00:54:57;95249.22;;;5.72;40.94
25350;BME280;13302;48.796;11.978;2023-12-22T00:57:44;95242.72;;;5.61;41.15
25350;BME280;13302;48.796;11.978;2023-12-22T01:00:31;95242.31;;;5.43;41.42
25350;BME280;13302;48.796;11.978;2023-12-22T01:03:18;95246.22;;;5.61;41.21
25350;BME280;13302;48.796;11.978;2023-12-22T01:06:05;95227.28;;;5.37;41.94
25350;BME280;13302;48.796;11.978;2023-12-22T01:08:52;95230.19;;;4.93;42.47
25350;BME280;13302;48.796;11.978;2023-12-22T01:11:40;95197.97;;;4.87;42.75
25350;BME280;13302;48.796;11.978;2023-12-22T01:14:27;95213.13;;;5.00;42.49
25350;BME280;13302;48.796;11.978;2023-12-22T01:17:14;95211.00;;;5.09;42.51
25350;BME280;13302;48.796;11.978;2023-12-22T01:20:01;95220.25;;;5.20;42.10
25350;BME280;13302;48.796;11.978;2023-12-22T01:22:48;95237.69;;;5.28;42.19
25350;BME280;13302;48.796;11.978;2023-12-22T01:25:35;95234.41;;;5.22;42.21
25350;BME280;13302;48.796;11.978;2023-12-22T01:28:22;95236.44;;;5.10;42.65
25350;BME280;13302;48.796;11.978;2023-12-22T01:31:09;95220.19;;;5.17;42.63
25350;BME280;13302;48.796;11.978;2023-12-22T01:33:56;95229.09;;;5.14;42.62
25350;BME280;13302;48.796;11.978;2023-12-22T01:36:43;95232.19;;;5.12;42.69
25350;BME280;13302;48.796;11.978;2023-12-22T01:39:30;95229.34;;;5.24;42.22
25350;BME280;13302;48.796;11.978;2023-12-22T01:42:17;95230.53;;;5.23;42.18
25350;BME280;13302;48.796;11.978;2023-12-22T01:45:05;95241.53;;;5.42;41.99
25350;BME280;13302;48.796;11.978;2023-12-22T01:47:53;95234.41;;;5.22;42.54
25350;BME280;13302;48.796;11.978;2023-12-22T01:50:41;95225.66;;;5.17;42.50
25350;BME280;13302;48.796;11.978;2023-12-22T01:53:29;95239.06;;;5.37;42.33
25350;BME280;13302;48.796;11.978;2023-12-22T01:56:17;95250.66;;;5.31;41.99
25350;BME280;13302;48.796;11.978;2023-12-22T01:59:04;95241.81;;;5.22;42.47
25350;BME280;13302;48.796;11.978;2023-12-22T02:01:52;95241.81;;;5.22;42.28
25350;BME280;13302;48.796;11.978;2023-12-22T02:04:40;95236.44;;;5.25;42.40
25350;BME280;13302;48.796;11.978;2023-12-22T02:07:28;95241.66;;;5.15;42.51
25350;BME280;13302;48.796;11.978;2023-12-22T02:10:15;95244.03;;;5.16;42.26
25350;BME280;13302;48.796;11.978;2023-12-22T02:13:03;95270.63;;;5.31;42.16
25350;BME280;13302;48.796;11.978;2023-12-22T02:15:56;95265.44;;;5.11;42.47
25350;BME280;13302;48.796;11.978;2023-12-22T02:18:50;95254.47;;;5.11;42.58
25350;BME280;13302;48.796;11.978;2023-12-22T02:22:07;95240.00;;;5.10;42.72
25350;BME280;13302;48.796;11.978;2023-12-22T02:24:56;95240.88;;;5.14;42.70
25350;BME280;13302;48.796;11.978;2023-12-22T02:27:50;95238.13;;;5.14;42.59
25350;BME280;13302;48.796;11.978;2023-12-22T02:30:44;95213.66;;;5.05;42.81
25350;BME280;13302;48.796;11.978;2023-12-22T02:33:38;95211.19;;;5.00;43.02
25350;BME280;13302;48.796;11.978;2023-12-22T02:36:29;95216.75;;;5.04;42.88
25350;BME280;13302;48.796;11.978;2023-12-22T02:39:18;95217.91;;;5.03;42.88
25350;BME280;13302;48.796;11.978;2023-12-22T02:42:06;95221.72;;;4.98;43.09
25350;BME280;13302;48.796;11.978;2023-12-22T02:44:53;95229.41;;;4.77;43.58
25350;BME280;13302;48.796;11.978;2023-12-22T02:47:41;95222.50;;;4.99;42.96
25350;BME280;13302;48.796;11.978;2023-12-22T02:50:28;95213.50;;;4.98;42.99
25350;BME280;13302;48.796;11.978;2023-12-22T02:53:15;95239.28;;;4.82;43.59
25350;BME280;13302;48.796;11.978;2023-12-22T02:56:02;95216.25;;;4.83;43.72
25350;BME280;13302;48.796;11.978;2023-12-22T02:58:49;95215.78;;;4.96;43.14
25350;BME280;13302;48.796;11.978;2023-12-22T03:01:37;95218.88;;;4.79;43.96
25350;BME280;13302;48.796;11.978;2023-12-22T03:04:24;95236.28;;;5.02;43.30
25350;BME280;13302;48.796;11.978;2023-12-22T03:07:11;95228.41;;;5.01;43.09
25350;BME280;13302;48.796;11.978;2023-12-22T03:09:58;95225.84;;;5.08;43.02
25350;BME280;13302;48.796;11.978;2023-12-22T03:12:45;95232.94;;;4.93;43.44
25350;BME280;13302;48.796;11.978;2023-12-22T03:15:32;95245.47;;;4.94;43.51
25350;BME280;13302;48.796;11.978;2023-12-22T03:18:19;95271.25;;;5.09;43.09
25350;BME280;13302;48.796;11.978;2023-12-22T03:21:06;95254.75;;;4.90;43.44
25350;BME280;13302;48.796;11.978;2023-12-22T03:23:53;95240.97;;;5.02;43.35
25350;BME280;13302;48.796;11.978;2023-12-22T03:26:40;95248.38;;;5.01;43.36
25350;BME280;13302;48.796;11.978;2023-12-22T03:29:27;95252.69;;;5.18;42.90
25350;BME280;13302;48.796;11.978;2023-12-22T03:32:14;95259.41;;;5.21;42.87
25350;BME280;13302;48.796;11.978;2023-12-22T03:35:01;95265.63;;;5.02;43.29
25350;BME280;13302;48.796;11.978;2023-12-22T03:37:48;95259.47;;;5.24;42.72
25350;BME280;13302;48.796;11.978;2023-12-22T03:40:35;95251.44;;;5.31;42.73
25350;BME280;13302;48.796;11.978;2023-12-22T03:43:22;95249.78;;;5.27;42.89
25350;BME280;13302;48.796;11.978;2023-12-22T03:46:09;95254.09;;;5.12;43.29
25350;BME280;13302;48.796;11.978;2023-12-22T03:48:56;95248.13;;;5.06;43.31
25350;BME280;13302;48.796;11.978;2023-12-22T03:51:43;95240.16;;;5.17;42.89
25350;BME280;13302;48.796;11.978;2023-12-22T03:54:30;95257.03;;;5.19;42.96
25350;BME280;13302;48.796;11.978;2023-12-22T03:57:17;95279.03;;;5.23;43.17
25350;BME280;13302;48.796;11.978;2023-12-22T04:00:05;95261.81;;;5.22;43.21
25350;BME280;13302;48.796;11.978;2023-12-22T04:02:52;95270.91;;;5.26;43.05
25350;BME280;13302;48.796;11.978;2023-12-22T04:05:42;95275.38;;;5.34;42.89
25350;BME280;13302;48.796;11.978;2023-12-22T04:08:29;95277.41;;;5.37;42.92
25350;BME280;13302;48.796;11.978;2023-12-22T04:11:16;95284.69;;;5.30;43.33
25350;BME280;13302;48.796;11.978;2023-12-22T04:14:03;95285.94;;;5.32;42.99
25350;BME280;13302;48.796;11.978;2023-12-22T04:16:50;95289.44;;;5.33;43.11
25350;BME280;13302;48.796;11.978;2023-12-22T04:19:40;95289.81;;;5.16;43.14
25350;BME280;13302;48.796;11.978;2023-12-22T04:22:27;95287.16;;;5.35;42.83
25350;BME280;13302;48.796;11.978;2023-12-22T04:25:14;95294.16;;;5.32;42.69
25350;BME280;13302;48.796;11.978;2023-12-22T04:28:01;95302.09;;;5.22;42.81
25350;BME280;13302;48.796;11.978;2023-12-22T04:30:48;95292.03;;;5.10;43.06
25350;BME280;13302;48.796;11.978;2023-12-22T04:33:35;95295.03;;;5.05;43.34
25350;BME280;13302;48.796;11.978;2023-12-22T04:36:22;95284.59;;;5.11;43.08
25350;BME280;13302;48.796;11.978;2023-12-22T04:39:09;95311.47;;;5.05;43.42
25350;BME280;13302;48.796;11.978;2023-12-22T04:41:56;95301.56;;;5.16;43.06
25350;BME280;13302;48.796;11.978;2023-12-22T04:44:43;95296.34;;;4.95;43.69
25350;BME280;13302;48.796;11.978;2023-12-22T04:47:30;95296.44;;;4.99;43.59
25350;BME280;13302;48.796;11.978;2023-12-22T04:50:18;95289.47;;;5.01;43.65
25350;BME280;13302;48.796;11.978;2023-12-22T04:53:05;95288.75;;;4.89;43.97
25350;BME280;13302;48.796;11.978;2023-12-22T04:55:52;95299.88;;;4.96;43.60
25350;BME280;13302;48.796;11.978;2023-12-22T04:58:39;95297.06;;;4.92;43.68
25350;BME280;13302;48.796;11.978;2023-12-22T05:01:26;95298.63;;;4.78;43.98
25350;BME280;13302;48.796;11.978;2023-12-22T05:04:13;95291.56;;;4.92;43.56
25350;BME280;13302;48.796;11.978;2023-12-22T05:07:00;95304.38;;;5.04;43.24
25350;BME280;13302;48.796;11.978;2023-12-22T05:09:48;95307.13;;;4.88;43.80
25350;BME280;13302;48.796;11.978;2023-12-22T05:12:35;95312.00;;;4.95;43.40
25350;BME280;13302;48.796;11.978;2023-12-22T05:15:22;95308.44;;;4.79;43.96
25350;BME280;13302;48.796;11.978;2023-12-22T05:18:09;95313.41;;;4.89;43.58
25350;BME280;13302;48.796;11.978;2023-12-22T05:20:56;95316.94;;;5.05;43.23
25350;BME280;13302;48.796;11.978;2023-12-22T05:23:43;95310.31;;;5.06;43.19
25350;BME280;13302;48.796;11.978;2023-12-22T05:26:30;95301.81;;;4.95;43.30
25350;BME280;13302;48.796;11.978;2023-12-22T05:29:17;95321.53;;;5.01;43.30
25350;BME280;13302;48.796;11.978;2023-12-22T05:32:04;95315.78;;;4.90;43.33
25350;BME280;13302;48.796;11.978;2023-12-22T05:34:52;95318.88;;;4.89;43.46
25350;BME280;13302;48.796;11.978;2023-12-22T05:37:39;95321.09;;;4.99;43.24
25350;BME280;13302;48.796;11.978;2023-12-22T05:40:26;95313.66;;;4.84;43.72
25350;BME280;13302;48.796;11.978;2023-12-22T05:43:13;95310.31;;;4.62;44.13
25350;BME280;13302;48.796;11.978;2023-12-22T05:46:01;95329.91;;;4.49;44.44
25350;BME280;13302;48.796;11.978;2023-12-22T05:48:48;95323.84;;;4.71;43.75
25350;BME280;13302;48.796;11.978;2023-12-22T05:51:37;95326.03;;;4.93;43.15
25350;BME280;13302;48.796;11.978;2023-12-22T05:54:24;95314.09;;;4.86;43.39
25350;BME280;13302;48.796;11.978;2023-12-22T05:57:12;95328.84;;;4.81;43.37
25350;BME280;13302;48.796;11.978;2023-12-22T05:59:59;95336.53;;;4.91;43.25
25350;BME280;13302;48.796;11.978;2023-12-22T06:02:46;95338.19;;;4.80;43.47
25350;BME280;13302;48.796;11.978;2023-12-22T06:05:33;95321.69;;;4.77;43.61
25350;BME280;13302;48.796;11.978;2023-12-22T06:08:21;95341.97;;;4.76;43.49
25350;BME280;13302;48.796;11.978;2023-12-22T06:11:08;95338.19;;;4.80;43.32
25350;BME280;13302;48.796;11.978;2023-12-22T06:13:55;95342.28;;;4.86;43.50
25350;BME280;13302;48.796;11.978;2023-12-22T06:16:42;95356.13;;;4.50;44.21
25350;BME280;13302;48.796;11.978;2023-12-22T06:19:29;95331.63;;;4.69;43.63
25350;BME280;13302;48.796;11.978;2023-12-22T06:22:17;95326.94;;;4.70;43.73
25350;BME280;13302;48.796;11.978;2023-12-22T06:25:04;95318.72;;;4.70;43.56
25350;BME280;13302;48.796;11.978;2023-12-22T06:27:54;95322.84;;;4.63;43.65
25350;BME280;13302;48.796;11.978;2023-12-22T06:30:41;95322.16;;;4.39;44.54
25350;BME280;13302;48.796;11.978;2023-12-22T06:33:30;95332.06;;;4.43;44.42
25350;BME280;13302;48.796;11.978;2023-12-22T06:36:24;95342.06;;;4.51;44.28
25350;BME280;13302;48.796;11.978;2023-12-22T06:39:11;95329.84;;;4.61;43.82
25350;BME280;13302;48.796;11.978;2023-12-22T06:41:58;95348.28;;;4.36;44.51
25350;BME280;13302;48.796;11.978;2023-12-22T06:44:45;95358.06;;;4.49;44.26
25350;BME280;13302;48.796;11.978;2023-12-22T06:47:32;95365.25;;;4.70;43.84
25350;BME280;13302;48.796;11.978;2023-12-22T06:50:20;95377.66;;;4.79;43.49
25350;BME280;13302;48.796;11.978;2023-12-22T06:53:07;95371.22;;;4.59;44.07
25350;BME280;13302;48.796;11.978;2023-12-22T06:56:24;95367.91;;;4.66;43.78
25350;BME280;13302;48.796;11.978;2023-12-22T06:59:11;95364.28;;;4.62;44.18
25350;BME280;13302;48.796;11.978;2023-12-22T07:02:02;95372.59;;;4.66;44.21
25350;BME280;13302;48.796;11.978;2023-12-22T07:08:10;95370.81;;;4.85;43.83
25350;BME280;13302;48.796;11.978;2023-12-22T07:10:57;95381.94;;;4.65;44.07
25350;BME280;13302;48.796;11.978;2023-12-22T07:13:44;95388.75;;;4.71;44.11
25350;BME280;13302;48.796;11.978;2023-12-22T07:16:33;95400.13;;;4.85;43.71
25350;BME280;13302;48.796;11.978;2023-12-22T07:19:21;95399.25;;;4.96;43.46
25350;BME280;13302;48.796;11.978;2023-12-22T07:22:09;95400.59;;;5.02;43.40
25350;BME280;13302;48.796;11.978;2023-12-22T07:24:56;95388.75;;;4.98;43.48
25350;BME280;13302;48.796;11.978;2023-12-22T07:27:45;95390.84;;;4.89;43.62
25350;BME280;13302;48.796;11.978;2023-12-22T07:30:33;95396.75;;;4.91;43.48
25350;BME280;13302;48.796;11.978;2023-12-22T07:33:21;95398.38;;;5.08;43.00
25350;BME280;13302;48.796;11.978;2023-12-22T07:36:08;95413.66;;;4.93;43.32
25350;BME280;13302;48.796;11.978;2023-12-22T07:38:55;95418.47;;;4.84;43.81
25350;BME280;13302;48.796;11.978;2023-12-22T07:41:45;95422.75;;;4.70;44.13
25350;BME280;13302;48.796;11.978;2023-12-22T07:44:32;95424.56;;;4.78;44.19
25350;BME280;13302;48.796;11.978;2023-12-22T07:47:20;95425.13;;;4.71;44.18
25350;BME280;13302;48.796;11.978;2023-12-22T07:50:07;95426.41;;;4.74;44.06
25350;BME280;13302;48.796;11.978;2023-12-22T07:52:56;95433.13;;;4.76;44.13
25350;BME280;13302;48.796;11.978;2023-12-22T07:55:43;95436.25;;;4.90;43.99
25350;BME280;13302;48.796;11.978;2023-12-22T07:58:31;95431.69;;;4.94;43.97
25350;BME280;13302;48.796;11.978;2023-12-22T08:01:18;95439.69;;;4.87;44.26
25350;BME280;13302;48.796;11.978;2023-12-22T08:04:05;95434.84;;;4.96;43.86
25350;BME280;13302;48.796;11.978;2023-12-22T08:06:52;95433.25;;;4.95;43.99
25350;BME280;13302;48.796;11.978;2023-12-22T08:09:40;95440.63;;;4.79;44.45
25350;BME280;13302;48.796;11.978;2023-12-22T08:12:27;95427.75;;;5.07;43.83
25350;BME280;13302;48.796;11.978;2023-12-22T08:15:14;95438.88;;;5.15;43.78
25350;BME280;13302;48.796;11.978;2023-12-22T08:18:15;95454.25;;;5.03;44.03
25350;BME280;13302;48.796;11.978;2023-12-22T08:21:02;95471.31;;;5.13;44.06
25350;BME280;13302;48.796;11.978;2023-12-22T08:24:03;95477.25;;;5.15;43.90
25350;BME280;13302;48.796;11.978;2023-12-22T08:26:50;95466.25;;;4.99;44.38
25350;BME280;13302;48.796;11.978;2023-12-22T08:29:38;95495.16;;;5.12;44.10
25350;BME280;13302;48.796;11.978;2023-12-22T08:32:25;95483.53;;;5.15;44.17
25350;BME280;13302;48.796;11.978;2023-12-22T08:35:12;95484.09;;;5.08;44.59
25350;BME280;13302;48.796;11.978;2023-12-22T08:37:59;95510.59;;;5.04;44.61
25350;BME280;13302;48.796;11.978;2023-12-22T08:40:47;95488.28;;;5.18;44.39
25350;BME280;13302;48.796;11.978;2023-12-22T08:43:34;95502.31;;;5.17;44.29
25350;BME280;13302;48.796;11.978;2023-12-22T08:46:21;95495.31;;;5.31;44.07
25350;BME280;13302;48.796;11.978;2023-12-22T08:49:09;95513.69;;;5.31;43.73
25350;BME280;13302;48.796;11.978;2023-12-22T08:51:56;95526.69;;;5.34;43.83
25350;BME280;13302;48.796;11.978;2023-12-22T08:54:43;95528.72;;;5.37;43.81
25350;BME280;13302;48.796;11.978;2023-12-22T08:57:30;95538.84;;;5.21;44.07
25350;BME280;13302;48.796;11.978;2023-12-22T09:00:18;95546.63;;;5.19;44.42
25350;BME280;13302;48.796;11.978;2023-12-22T09:03:06;95532.03;;;5.15;44.64
25350;BME280;13302;48.796;11.978;2023-12-22T09:05:53;95537.69;;;5.22;44.31
25350;BME280;13302;48.796;11.978;2023-12-22T09:08:40;95540.25;;;5.15;44.69
25350;BME280;13302;48.796;11.978;2023-12-22T09:11:27;95536.56;;;5.23;44.54
25350;BME280;13302;48.796;11.978;2023-12-22T09:14:14;95546.91;;;5.29;44.57
25350;BME280;13302;48.796;11.978;2023-12-22T09:17:01;95549.75;;;5.33;44.86
25350;BME280;13302;48.796;11.978;2023-12-22T09:19:48;95550.22;;;5.35;44.54
25350;BME280;13302;48.796;11.978;2023-12-22T09:22:35;95544.03;;;5.38;44.51
25350;BME280;13302;48.796;11.978;2023-12-22T09:25:23;95546.94;;;5.45;44.48
25350;BME280;13302;48.796;11.978;2023-12-22T09:28:11;95535.47;;;5.39;44.64
25350;BME280;13302;48.796;11.978;2023-12-22T09:30:58;95535.97;;;5.45;44.47
25350;BME280;13302;48.796;11.978;2023-12-22T09:33:45;95540.78;;;5.48;44.36
25350;BME280;13302;48.796;11.978;2023-12-22T09:36:32;95541.38;;;5.41;44.61
25350;BME280;13302;48.796;11.978;2023-12-22T09:39:19;95556.97;;;5.53;44.36
25350;BME280;13302;48.796;11.978;2023-12-22T09:42:07;95553.03;;;5.38;44.81
25350;BME280;13302;48.796;11.978;2023-12-22T09:44:55;95548.13;;;5.44;44.55
25350;BME280;13302;48.796;11.978;2023-12-22T09:47:45;95546.50;;;5.43;44.28
25350;BME280;13302;48.796;11.978;2023-12-22T09:50:33;95539.34;;;5.38;44.21
25350;BME280;13302;48.796;11.978;2023-12-22T09:53:21;95521.59;;;5.48;44.13
25350;BME280;13302;48.796;11.978;2023-12-22T09:56:08;95515.13;;;5.40;43.98
25350;BME280;13302;48.796;11.978;2023-12-22T09:58:56;95506.22;;;5.43;43.94
25350;BME280;13302;48.796;11.978;2023-12-22T10:01:45;95514.25;;;5.36;44.22
25350;BME280;13302;48.796;11.978;2023-12-22T10:04:35;95506.94;;;5.28;44.10
25350;BME280;13302;48.796;11.978;2023-12-22T10:07:22;95501.38;;;5.52;44.17
25350;BME280;13302;48.796;11.978;2023-12-22T10:10:11;95507.13;;;5.20;44.58
25350;BME280;13302;48.796;11.978;2023-12-22T10:12:59;95503.06;;;5.29;44.80
25350;BME280;13302;48.796;11.978;2023-12-22T10:15:47;95492.31;;;5.36;44.49
25350;BME280;13302;48.796;11.978;2023-12-22T10:18:34;95497.47;;;5.53;44.28
25350;BME280;13302;48.796;11.978;2023-12-22T10:21:21;95486.66;;;5.45;44.49
25350;BME280;13302;48.796;11.978;2023-12-22T10:24:36;95479.44;;;5.52;44.43
25350;BME280;13302;48.796;11.978;2023-12-22T10:27:23;95463.75;;;5.53;44.60
25350;BME280;13302;48.796;11.978;2023-12-22T10:30:10;95460.16;;;5.65;44.47
25350;BME280;13302;48.796;11.978;2023-12-22T10:32:57;95463.72;;;5.65;44.70
25350;BME280;13302;48.796;11.978;2023-12-22T10:35:45;95465.03;;;5.71;44.64
25350;BME280;13302;48.796;11.978;2023-12-22T10:38:33;95460.97;;;5.65;44.88
25350;BME280;13302;48.796;11.978;2023-12-22T10:41:23;95457.84;;;5.67;44.92
25350;BME280;13302;48.796;11.978;2023-12-22T10:44:10;95461.41;;;5.67;44.77
25350;BME280;13302;48.796;11.978;2023-12-22T10:46:57;95444.69;;;5.72;44.80
25350;BME280;13302;48.796;11.978;2023-12-22T10:49:46;95441.16;;;5.72;44.76
25350;BME280;13302;48.796;11.978;2023-12-22T10:52:33;95439.28;;;5.76;44.82
25350;BME280;13302;48.796;11.978;2023-12-22T10:55:20;95433.25;;;5.86;44.58
25350;BME280;13302;48.796;11.978;2023-12-22T10:58:08;95437.69;;;5.90;44.64
25350;BME280;13302;48.796;11.978;2023-12-22T11:00:56;95438.41;;;5.87;44.86
25350;BME280;13302;48.796;11.978;2023-12-22T11:03:44;95444.75;;;5.91;44.62
25350;BME280;13302;48.796;11.978;2023-12-22T11:06:35;95429.25;;;5.99;44.63
25350;BME280;13302;48.796;11.978;2023-12-22T11:09:23;95431.94;;;5.95;44.62
25350;BME280;13302;48.796;11.978;2023-12-22T11:12:13;95436.63;;;5.95;44.74
25350;BME280;13302;48.796;11.978;2023-12-22T11:15:02;95437.88;;;5.97;44.47
25350;BME280;13302;48.796;11.978;2023-12-22T11:17:51;95412.47;;;6.00;44.81
25350;BME280;13302;48.796;11.978;2023-12-22T11:20:39;95421.31;;;6.10;44.63
25350;BME280;13302;48.796;11.978;2023-12-22T11:23:28;95416.25;;;6.12;44.49
25350;BME280;13302;48.796;11.978;2023-12-22T11:26:18;95429.53;;;6.10;44.70
25350;BME280;13302;48.796;11.978;2023-12-22T11:29:06;95412.28;;;6.09;44.36
25350;BME280;13302;48.796;11.978;2023-12-22T11:31:55;95400.34;;;6.17;44.41
25350;BME280;13302;48.796;11.978;2023-12-22T11:34:47;95411.31;;;6.17;44.11
25350;BME280;13302;48.796;11.978;2023-12-22T11:37:35;95400.25;;;6.14;44.43
25350;BME280;13302;48.796;11.978;2023-12-22T11:40:23;95386.78;;;6.09;44.20
25350;BME280;13302;48.796;11.978;2023-12-22T11:43:11;95391.81;;;6.07;44.05
25350;BME280;13302;48.796;11.978;2023-12-22T11:46:02;95409.72;;;6.00;44.11
25350;BME280;13302;48.796;11.978;2023-12-22T11:48:51;95397.25;;;5.87;44.66
25350;BME280;13302;48.796;11.978;2023-12-22T11:51:38;95388.19;;;6.02;44.22
25350;BME280;13302;48.796;11.978;2023-12-22T11:54:48;95389.38;;;6.02;44.76
25350;BME280;13302;48.796;11.978;2023-12-22T11:57:37;95395.41;;;5.91;45.14
25350;BME280;13302;48.796;11.978;2023-12-22T12:03:12;95379.50;;;5.81;45.61
25350;BME280;13302;48.796;11.978;2023-12-22T12:06:22;95377.44;;;5.94;45.31
25350;BME280;13302;48.796;11.978;2023-12-22T12:09:46;95375.56;;;5.98;45.24
25350;BME280;13302;48.796;11.978;2023-12-22T12:12:33;95361.41;;;5.96;45.16
25350;BME280;13302;48.796;11.978;2023-12-22T12:15:23;95363.63;;;5.90;45.38
25350;BME280;13302;48.796;11.978;2023-12-22T12:18:10;95338.13;;;6.06;45.12
25350;BME280;13302;48.796;11.978;2023-12-22T12:21:00;95343.34;;;5.95;45.54
25350;BME280;13302;48.796;11.978;2023-12-22T12:23:48;95356.13;;;5.87;45.62
25350;BME280;13302;48.796;11.978;2023-12-22T12:26:36;95342.06;;;5.89;46.04
25350;BME280;13302;48.796;11.978;2023-12-22T12:29:23;95354.44;;;5.83;46.11
25350;BME280;13302;48.796;11.978;2023-12-22T12:32:13;95346.78;;;5.73;46.72
25350;BME280;13302;48.796;11.978;2023-12-22T12:35:01;95345.25;;;5.75;46.61
25350;BME280;13302;48.796;11.978;2023-12-22T12:37:50;95335.81;;;5.73;47.05
25350;BME280;13302;48.796;11.978;2023-12-22T12:40:39;95346.03;;;5.91;46.55
25350;BME280;13302;48.796;11.978;2023-12-22T12:43:27;95334.72;;;5.93;46.52
25350;BME280;13302;48.796;11.978;2023-12-22T12:46:14;95334.63;;;5.89;46.54
25350;BME280;13302;48.796;11.978;2023-12-22T12:49:09;95315.59;;;5.96;46.97
25350;BME280;13302;48.796;11.978;2023-12-22T12:51:56;95311.25;;;5.95;46.90
25350;BME280;13302;48.796;11.978;2023-12-22T12:54:43;95306.69;;;6.03;46.52
25350;BME280;13302;48.796;11.978;2023-12-22T12:57:31;95290.81;;;5.93;47.09
25350;BME280;13302;48.796;11.978;2023-12-22T13:00:31;95294.22;;;6.06;46.88
25350;BME280;13302;48.796;11.978;2023-12-22T13:03:19;95287.88;;;6.02;46.76
25350;BME280;13302;48.796;11.978;2023-12-22T13:06:07;95287.44;;;5.99;47.17
25350;BME280;13302;48.796;11.978;2023-12-22T13:08:55;95273.97;;;6.10;46.71
25350;BME280;13302;48.796;11.978;2023-12-22T13:11:43;95277.50;;;6.11;46.61
25350;BME280;13302;48.796;11.978;2023-12-22T13:14:30;95275.38;;;5.85;47.74
25350;BME280;13302;48.796;11.978;2023-12-22T13:17:17;95279.53;;;5.79;47.99
25350;BME280;13302;48.796;11.978;2023-12-22T13:20:05;95254.47;;;5.61;48.61
25350;BME280;13302;48.796;11.978;2023-12-22T13:22:52;95264.47;;;5.88;47.62
25350;BME280;13302;48.796;11.978;2023-12-22T13:25:40;95252.44;;;5.93;47.58
25350;BME280;13302;48.796;11.978;2023-12-22T13:28:28;95255.38;;;6.04;47.52
25350;BME280;13302;48.796;11.978;2023-12-22T13:31:15;95245.66;;;6.06;47.34
25350;BME280;13302;48.796;11.978;2023-12-22T13:34:14;95259.72;;;6.05;47.54
25350;BME280;13302;48.796;11.978;2023-12-22T13:37:03;95255.09;;;5.89;48.28
25350;BME280;13302;48.796;11.978;2023-12-22T13:39:50;95254.31;;;5.89;48.36
25350;BME280;13302;48.796;11.978;2023-12-22T13:42:37;95265.34;;;5.92;48.21
25350;BME280;13302;48.796;11.978;2023-12-22T13:45:25;95265.41;;;5.96;47.84
25350;BME280;13302;48.796;11.978;2023-12-22T13:48:15;95256.97;;;5.85;48.52
25350;BME280;13302;48.796;11.978;2023-12-22T13:51:03;95257.78;;;6.05;48.06
25350;BME280;13302;48.796;11.978;2023-12-22T13:53:50;95242.91;;;6.06;48.10
25350;BME280;13302;48.796;11.978;2023-12-22T13:56:38;95245.53;;;6.18;47.41
25350;BME280;13302;48.796;11.978;2023-12-22T13:59:32;95230.34;;;6.05;48.04
25350;BME280;13302;48.796;11.978;2023-12-22T14:02:23;95234.84;;;6.13;47.53
25350;BME280;13302;48.796;11.978;2023-12-22T14:05:10;95242.13;;;6.06;48.54
25350;BME280;13302;48.796;11.978;2023-12-22T14:07:57;95217.44;;;6.06;48.38
25350;BME280;13302;48.796;11.978;2023-12-22T14:10:46;95214.25;;;5.84;48.85
25350;BME280;13302;48.796;11.978;2023-12-22T14:13:34;95233.94;;;5.90;48.68
25350;BME280;13302;48.796;11.978;2023-12-22T14:16:25;95228.22;;;5.98;48.57
25350;BME280;13302;48.796;11.978;2023-12-22T14:19:12;95244.56;;;6.11;48.03
25350;BME280;13302;48.796;11.978;2023-12-22T14:22:00;95247.03;;;6.16;47.82
25350;BME280;13302;48.796;11.978;2023-12-22T14:24:47;95248.47;;;6.10;48.15
25350;BME280;13302;48.796;11.978;2023-12-22T14:27:34;95273.69;;;5.80;48.57
25350;BME280;13302;48.796;11.978;2023-12-22T14:30:21;95289.69;;;5.78;48.44
25350;BME280;13302;48.796;11.978;2023-12-22T14:33:08;95258.84;;;5.81;48.15
25350;BME280;13302;48.796;11.978;2023-12-22T14:35:56;95250.75;;;5.88;48.22
25350;BME280;13302;48.796;11.978;2023-12-22T14:38:43;95252.72;;;5.88;48.18
25350;BME280;13302;48.796;11.978;2023-12-22T14:41:30;95244.69;;;5.98;47.87
25350;BME280;13302;48.796;11.978;2023-12-22T14:44:17;95248.28;;;6.02;47.91
25350;BME280;13302;48.796;11.978;2023-12-22T14:47:05;95269.91;;;6.04;47.77
25350;BME280;13302;48.796;11.978;2023-12-22T14:49:53;95248.03;;;6.08;47.70
25350;BME280;13302;48.796;11.978;2023-12-22T14:52:40;95258.47;;;5.83;48.29
25350;BME280;13302;48.796;11.978;2023-12-22T14:55:27;95246.88;;;5.89;48.11
25350;BME280;13302;48.796;11.978;2023-12-22T14:58:14;95231.34;;;5.97;48.25